Terminal Aerodrome Forecast
Issued by NWS Sioux Falls, SD

Home | Current Version | Previous Version | Text Only | Print | Product List | Glossary Off
Versions: 1 2 3 4 5 6 7 8 9 10 11 12 13 14 15 16 17 18 19 20

164
FTUS43 KFSD 171126
TAFFSD
TAF
KFSD 171126Z 1712/1812 VRB03KT P6SM SKC
     FM171500 34007KT P6SM SKC
     FM171800 VRB04KT P6SM SCT090
     FM180000 16005KT P6SM BKN090
     FM180900 14007KT P6SM -SHRA OVC080=

USA.gov is the U.S. government's official web portal to all federal, state and local government web resources and services.